sensor_id;sensor_type;location;lat;lon;timestamp;pressure;altitude;pressure_sealevel;temperature;humidity
16461;BME280;8341;42.048;24.650;2022-08-19T00:00:09;96804.53;;;26.81;40.34
16461;BME280;8341;42.048;24.650;2022-08-19T00:02:39;96795.53;;;26.82;40.28
16461;BME280;8341;42.048;24.650;2022-08-19T00:05:08;96796.41;;;26.85;40.72
16461;BME280;8341;42.048;24.650;2022-08-19T00:07:35;96800.53;;;26.84;40.51
16461;BME280;8341;42.048;24.650;2022-08-19T00:10:03;96798.19;;;26.80;40.22
16461;BME280;8341;42.048;24.650;2022-08-19T00:12:30;96799.50;;;26.79;40.22
16461;BME280;8341;42.048;24.650;2022-08-19T00:14:56;96797.31;;;26.78;40.67
16461;BME280;8341;42.048;24.650;2022-08-19T00:17:25;96790.69;;;26.63;40.86
16461;BME280;8341;42.048;24.650;2022-08-19T00:19:51;96791.88;;;26.60;40.80
16461;BME280;8341;42.048;24.650;2022-08-19T00:22:18;96793.47;;;26.63;41.04
16461;BME280;8341;42.048;24.650;2022-08-19T00:24:45;96797.31;;;26.68;40.81
16461;BME280;8341;42.048;24.650;2022-08-19T00:27:12;96798.63;;;26.67;40.65
16461;BME280;8341;42.048;24.650;2022-08-19T00:29:39;96790.28;;;26.57;40.68
16461;BME280;8341;42.048;24.650;2022-08-19T00:32:06;96797.19;;;26.56;40.89
16461;BME280;8341;42.048;24.650;2022-08-19T00:34:34;96791.44;;;26.54;41.08
16461;BME280;8341;42.048;24.650;2022-08-19T00:37:01;96791.16;;;26.50;41.21
16461;BME280;8341;42.048;24.650;2022-08-19T00:39:28;96789.97;;;26.53;41.12
16461;BME280;8341;42.048;24.650;2022-08-19T00:41:55;96786.91;;;26.49;41.35
16461;BME280;8341;42.048;24.650;2022-08-19T00:44:25;96784.22;;;26.51;41.30
16461;BME280;8341;42.048;24.650;2022-08-19T00:46:53;96777.50;;;26.45;41.61
16461;BME280;8341;42.048;24.650;2022-08-19T00:49:25;96775.72;;;26.49;41.28
16461;BME280;8341;42.048;24.650;2022-08-19T00:51:58;96775.56;;;26.47;41.39
16461;BME280;8341;42.048;24.650;2022-08-19T00:54:27;96782.63;;;26.48;41.53
16461;BME280;8341;42.048;24.650;2022-08-19T00:56:57;96781.88;;;26.48;41.80
16461;BME280;8341;42.048;24.650;2022-08-19T00:59:25;96773.34;;;26.46;41.77
16461;BME280;8341;42.048;24.650;2022-08-19T01:01:52;96770.84;;;26.40;41.96
16461;BME280;8341;42.048;24.650;2022-08-19T01:04:19;96767.75;;;26.46;41.86
16461;BME280;8341;42.048;24.650;2022-08-19T01:06:45;96755.72;;;26.24;41.47
16461;BME280;8341;42.048;24.650;2022-08-19T01:09:14;96770.84;;;26.40;42.17
16461;BME280;8341;42.048;24.650;2022-08-19T01:11:42;96760.13;;;26.37;41.96
16461;BME280;8341;42.048;24.650;2022-08-19T01:14:11;96753.81;;;26.36;42.21
16461;BME280;8341;42.048;24.650;2022-08-19T01:16:39;96762.75;;;26.35;42.01
16461;BME280;8341;42.048;24.650;2022-08-19T01:19:17;96767.19;;;26.38;42.23
16461;BME280;8341;42.048;24.650;2022-08-19T01:21:50;96762.75;;;26.35;42.06
16461;BME280;8341;42.048;24.650;2022-08-19T01:24:19;96766.47;;;26.37;41.92
16461;BME280;8341;42.048;24.650;2022-08-19T01:26:47;96772.94;;;26.30;41.96
16461;BME280;8341;42.048;24.650;2022-08-19T01:29:14;96773.22;;;26.34;41.75
16461;BME280;8341;42.048;24.650;2022-08-19T01:31:41;96770.28;;;26.32;42.47
16461;BME280;8341;42.048;24.650;2022-08-19T01:34:08;96770.44;;;26.34;41.93
16461;BME280;8341;42.048;24.650;2022-08-19T01:36:40;96771.59;;;26.31;42.05
16461;BME280;8341;42.048;24.650;2022-08-19T01:39:12;96778.50;;;26.30;42.57
16461;BME280;8341;42.048;24.650;2022-08-19T01:41:41;96773.53;;;26.29;42.02
16461;BME280;8341;42.048;24.650;2022-08-19T01:44:10;96766.47;;;26.18;42.36
16461;BME280;8341;42.048;24.650;2022-08-19T01:46:37;96770.00;;;26.28;42.26
16461;BME280;8341;42.048;24.650;2022-08-19T01:49:05;96777.22;;;26.22;42.34
16461;BME280;8341;42.048;24.650;2022-08-19T01:51:33;96775.88;;;26.23;42.29
16461;BME280;8341;42.048;24.650;2022-08-19T01:54:00;96775.31;;;26.24;42.09
16461;BME280;8341;42.048;24.650;2022-08-19T01:56:27;96780.31;;;26.16;42.57
16461;BME280;8341;42.048;24.650;2022-08-19T01:58:58;96776.34;;;26.19;42.53
16461;BME280;8341;42.048;24.650;2022-08-19T02:01:26;96780.84;;;26.05;43.24
16461;BME280;8341;42.048;24.650;2022-08-19T02:03:57;96786.31;;;26.03;42.97
16461;BME280;8341;42.048;24.650;2022-08-19T02:06:24;96789.69;;;26.11;42.77
16461;BME280;8341;42.048;24.650;2022-08-19T02:08:50;96782.78;;;26.12;42.79
16461;BME280;8341;42.048;24.650;2022-08-19T02:11:20;96787.63;;;26.02;43.05
16461;BME280;8341;42.048;24.650;2022-08-19T02:13:47;96786.31;;;26.13;43.11
16461;BME280;8341;42.048;24.650;2022-08-19T02:16:17;96788.81;;;26.08;42.65
16461;BME280;8341;42.048;24.650;2022-08-19T02:18:44;96797.06;;;26.16;42.82
16461;BME280;8341;42.048;24.650;2022-08-19T02:21:12;96810.41;;;26.08;43.41
16461;BME280;8341;42.048;24.650;2022-08-19T02:23:41;96814.38;;;26.05;43.41
16461;BME280;8341;42.048;24.650;2022-08-19T02:26:08;96812.00;;;25.92;44.26
16461;BME280;8341;42.048;24.650;2022-08-19T02:28:35;96804.97;;;25.91;44.09
16461;BME280;8341;42.048;24.650;2022-08-19T02:31:03;96803.63;;;25.92;44.30
16461;BME280;8341;42.048;24.650;2022-08-19T02:33:31;96801.09;;;25.58;44.55
16461;BME280;8341;42.048;24.650;2022-08-19T02:35:58;96803.50;;;25.44;44.74
16461;BME280;8341;42.048;24.650;2022-08-19T02:38:24;96811.28;;;25.36;44.90
16461;BME280;8341;42.048;24.650;2022-08-19T02:40:52;96813.19;;;25.43;46.76
16461;BME280;8341;42.048;24.650;2022-08-19T02:43:20;96812.31;;;25.40;46.74
16461;BME280;8341;42.048;24.650;2022-08-19T02:45:47;96819.03;;;25.28;46.60
16461;BME280;8341;42.048;24.650;2022-08-19T02:48:15;96822.56;;;25.28;46.17
16461;BME280;8341;42.048;24.650;2022-08-19T02:50:44;96813.44;;;25.28;47.21
16461;BME280;8341;42.048;24.650;2022-08-19T02:53:11;96826.50;;;25.25;47.54
16461;BME280;8341;42.048;24.650;2022-08-19T02:55:42;96826.03;;;25.19;48.34
16461;BME280;8341;42.048;24.650;2022-08-19T02:58:09;96819.38;;;25.05;48.52
16461;BME280;8341;42.048;24.650;2022-08-19T03:00:41;96825.22;;;25.00;47.93
16461;BME280;8341;42.048;24.650;2022-08-19T03:03:09;96832.38;;;24.93;47.28
16461;BME280;8341;42.048;24.650;2022-08-19T03:05:36;96834.09;;;24.88;47.46
16461;BME280;8341;42.048;24.650;2022-08-19T03:08:04;96833.69;;;24.92;48.83
16461;BME280;8341;42.048;24.650;2022-08-19T03:10:31;96831.16;;;24.86;48.92
16461;BME280;8341;42.048;24.650;2022-08-19T03:12:58;96833.53;;;24.90;48.01
16461;BME280;8341;42.048;24.650;2022-08-19T03:15:25;96838.63;;;24.84;48.81
16461;BME280;8341;42.048;24.650;2022-08-19T03:17:52;96833.88;;;24.77;48.41
16461;BME280;8341;42.048;24.650;2022-08-19T03:20:19;96843.75;;;24.78;47.84
16461;BME280;8341;42.048;24.650;2022-08-19T03:22:46;96840.69;;;24.83;47.92
16461;BME280;8341;42.048;24.650;2022-08-19T03:25:14;96844.38;;;24.86;47.97
16461;BME280;8341;42.048;24.650;2022-08-19T03:27:41;96849.22;;;24.85;48.89
16461;BME280;8341;42.048;24.650;2022-08-19T03:30:10;96841.56;;;24.86;48.72
16461;BME280;8341;42.048;24.650;2022-08-19T03:32:37;96849.13;;;24.76;49.07
16461;BME280;8341;42.048;24.650;2022-08-19T03:35:04;96847.00;;;24.67;49.22
16461;BME280;8341;42.048;24.650;2022-08-19T03:37:31;96847.19;;;24.69;49.11
16461;BME280;8341;42.048;24.650;2022-08-19T03:39:58;96851.91;;;24.76;48.99
16461;BME280;8341;42.048;24.650;2022-08-19T03:42:26;96849.56;;;24.72;48.85
16461;BME280;8341;42.048;24.650;2022-08-19T03:44:54;96848.22;;;24.73;48.74
16461;BME280;8341;42.048;24.650;2022-08-19T03:47:20;96857.03;;;24.70;49.14
16461;BME280;8341;42.048;24.650;2022-08-19T03:49:47;96847.66;;;24.75;48.56
16461;BME280;8341;42.048;24.650;2022-08-19T03:52:14;96852.84;;;24.78;48.28
16461;BME280;8341;42.048;24.650;2022-08-19T03:54:41;96865.06;;;24.83;49.92
16461;BME280;8341;42.048;24.650;2022-08-19T03:57:08;96861.09;;;24.86;50.59
16461;BME280;8341;42.048;24.650;2022-08-19T03:59:38;96864.94;;;24.73;50.19
16461;BME280;8341;42.048;24.650;2022-08-19T04:02:07;96861.38;;;24.80;51.49
16461;BME280;8341;42.048;24.650;2022-08-19T04:04:35;96855.63;;;24.78;51.25
16461;BME280;8341;42.048;24.650;2022-08-19T04:07:02;96866.28;;;24.72;51.34
16461;BME280;8341;42.048;24.650;2022-08-19T04:09:29;96861.75;;;24.77;51.94
16461;BME280;8341;42.048;24.650;2022-08-19T04:11:57;96860.13;;;24.74;51.47
16461;BME280;8341;42.048;24.650;2022-08-19T04:14:26;96867.00;;;24.90;50.82
16461;BME280;8341;42.048;24.650;2022-08-19T04:16:57;96869.47;;;24.86;49.81
16461;BME280;8341;42.048;24.650;2022-08-19T04:19:25;96867.91;;;24.93;50.98
16461;BME280;8341;42.048;24.650;2022-08-19T04:21:54;96868.66;;;24.93;51.21
16461;BME280;8341;42.048;24.650;2022-08-19T04:24:22;96867.91;;;24.93;51.16
16461;BME280;8341;42.048;24.650;2022-08-19T04:26:49;96872.91;;;24.94;49.93
16461;BME280;8341;42.048;24.650;2022-08-19T04:29:19;96881.28;;;24.94;49.88
16461;BME280;8341;42.048;24.650;2022-08-19T04:31:47;96870.91;;;25.04;50.35
16461;BME280;8341;42.048;24.650;2022-08-19T04:34:18;96880.75;;;25.05;50.45
16461;BME280;8341;42.048;24.650;2022-08-19T04:36:47;96880.75;;;25.05;51.28
16461;BME280;8341;42.048;24.650;2022-08-19T04:39:18;96876.47;;;25.04;50.72
16461;BME280;8341;42.048;24.650;2022-08-19T04:41:46;96882.94;;;25.07;51.55
16461;BME280;8341;42.048;24.650;2022-08-19T04:44:30;96886.34;;;25.05;51.96
16461;BME280;8341;42.048;24.650;2022-08-19T04:46:58;96874.44;;;25.05;51.21
16461;BME280;8341;42.048;24.650;2022-08-19T04:49:26;96874.47;;;25.14;50.98
16461;BME280;8341;42.048;24.650;2022-08-19T04:51:54;96880.44;;;25.28;51.11
16461;BME280;8341;42.048;24.650;2022-08-19T04:54:23;96878.91;;;25.44;51.69
16461;BME280;8341;42.048;24.650;2022-08-19T04:56:50;96885.44;;;25.56;50.49
16461;BME280;8341;42.048;24.650;2022-08-19T04:59:18;96883.44;;;25.76;49.55
16461;BME280;8341;42.048;24.650;2022-08-19T05:01:46;96881.44;;;25.86;49.04
16461;BME280;8341;42.048;24.650;2022-08-19T05:04:15;96890.84;;;26.00;49.77
16461;BME280;8341;42.048;24.650;2022-08-19T05:06:46;96889.88;;;26.15;48.58
16461;BME280;8341;42.048;24.650;2022-08-19T05:09:13;96883.44;;;26.31;48.02
16461;BME280;8341;42.048;24.650;2022-08-19T05:11:41;96891.53;;;26.46;48.31
16461;BME280;8341;42.048;24.650;2022-08-19T05:14:08;96889.31;;;26.54;47.70
16461;BME280;8341;42.048;24.650;2022-08-19T05:16:35;96892.56;;;26.60;47.93
16461;BME280;8341;42.048;24.650;2022-08-19T05:19:02;96890.34;;;26.68;47.59
16461;BME280;8341;42.048;24.650;2022-08-19T05:21:47;96897.13;;;26.85;47.26
16461;BME280;8341;42.048;24.650;2022-08-19T05:24:32;96898.00;;;26.97;47.03
16461;BME280;8341;42.048;24.650;2022-08-19T05:27:00;96901.81;;;27.11;47.59
16461;BME280;8341;42.048;24.650;2022-08-19T05:29:29;96886.69;;;27.35;46.29
16461;BME280;8341;42.048;24.650;2022-08-19T05:31:57;96888.72;;;27.84;45.41
16461;BME280;8341;42.048;24.650;2022-08-19T05:34:25;96900.13;;;28.08;45.25
16461;BME280;8341;42.048;24.650;2022-08-19T05:36:56;96892.03;;;28.12;44.71
16461;BME280;8341;42.048;24.650;2022-08-19T05:39:26;96893.94;;;28.09;44.97
16461;BME280;8341;42.048;24.650;2022-08-19T05:41:55;96895.88;;;28.07;45.05
16461;BME280;8341;42.048;24.650;2022-08-19T05:44:23;96894.81;;;28.12;45.11
16461;BME280;8341;42.048;24.650;2022-08-19T05:46:51;96893.47;;;28.13;45.22
16461;BME280;8341;42.048;24.650;2022-08-19T05:49:20;96894.94;;;28.14;45.25
16461;BME280;8341;42.048;24.650;2022-08-19T05:51:48;96895.22;;;28.18;46.04
16461;BME280;8341;42.048;24.650;2022-08-19T05:54:17;96888.16;;;28.17;45.41
16461;BME280;8341;42.048;24.650;2022-08-19T05:56:45;96892.69;;;28.22;45.39
16461;BME280;8341;42.048;24.650;2022-08-19T05:59:14;96886.13;;;28.29;44.99
16461;BME280;8341;42.048;24.650;2022-08-19T06:01:43;96890.22;;;28.37;45.04
16461;BME280;8341;42.048;24.650;2022-08-19T06:04:11;96888.41;;;28.42;45.30
16461;BME280;8341;42.048;24.650;2022-08-19T06:06:39;96892.94;;;28.47;45.88
16461;BME280;8341;42.048;24.650;2022-08-19T06:09:07;96888.31;;;28.51;46.65
16461;BME280;8341;42.048;24.650;2022-08-19T06:11:39;96892.28;;;28.58;47.10
16461;BME280;8341;42.048;24.650;2022-08-19T06:14:09;96895.34;;;28.62;45.80
16461;BME280;8341;42.048;24.650;2022-08-19T06:16:38;96895.63;;;28.45;47.90
16461;BME280;8341;42.048;24.650;2022-08-19T06:19:07;96898.28;;;28.43;47.48
16461;BME280;8341;42.048;24.650;2022-08-19T06:21:35;96898.28;;;28.43;50.94
16461;BME280;8341;42.048;24.650;2022-08-19T06:24:04;96892.22;;;28.04;50.47
16461;BME280;8341;42.048;24.650;2022-08-19T06:26:33;96895.31;;;27.68;51.50
16461;BME280;8341;42.048;24.650;2022-08-19T06:29:01;96896.97;;;27.61;47.77
16461;BME280;8341;42.048;24.650;2022-08-19T06:31:29;96896.41;;;27.84;50.75
16461;BME280;8341;42.048;24.650;2022-08-19T06:33:59;96903.63;;;27.56;51.26
16461;BME280;8341;42.048;24.650;2022-08-19T06:36:30;96902.31;;;27.38;53.03
16461;BME280;8341;42.048;24.650;2022-08-19T06:39:00;96902.34;;;27.48;52.40
16461;BME280;8341;42.048;24.650;2022-08-19T06:41:28;96915.59;;;27.47;52.10
16461;BME280;8341;42.048;24.650;2022-08-19T06:43:57;96907.06;;;27.45;53.90
16461;BME280;8341;42.048;24.650;2022-08-19T06:46:26;96909.81;;;27.55;53.55
16461;BME280;8341;42.048;24.650;2022-08-19T06:48:53;96917.97;;;27.41;54.24
16461;BME280;8341;42.048;24.650;2022-08-19T06:51:21;96917.38;;;27.33;52.55
16461;BME280;8341;42.048;24.650;2022-08-19T06:53:53;96919.13;;;27.38;52.06
16461;BME280;8341;42.048;24.650;2022-08-19T06:56:22;96927.25;;;27.34;52.50
16461;BME280;8341;42.048;24.650;2022-08-19T06:58:50;96915.59;;;27.47;52.60
16461;BME280;8341;42.048;24.650;2022-08-19T07:01:18;96908.38;;;27.44;52.31
16461;BME280;8341;42.048;24.650;2022-08-19T07:03:47;96914.44;;;27.31;51.34
16461;BME280;8341;42.048;24.650;2022-08-19T07:06:15;96907.06;;;27.45;52.54
16461;BME280;8341;42.048;24.650;2022-08-19T07:08:43;96908.28;;;27.63;51.76
16461;BME280;8341;42.048;24.650;2022-08-19T07:11:13;96907.03;;;27.85;51.66
16461;BME280;8341;42.048;24.650;2022-08-19T07:13:41;96913.56;;;27.78;50.47
16461;BME280;8341;42.048;24.650;2022-08-19T07:16:11;96920.56;;;27.89;50.10
16461;BME280;8341;42.048;24.650;2022-08-19T07:18:38;96911.25;;;27.65;50.24
16461;BME280;8341;42.048;24.650;2022-08-19T07:21:09;96909.09;;;27.85;50.77
16461;BME280;8341;42.048;24.650;2022-08-19T07:23:36;96916.84;;;28.06;50.26
16461;BME280;8341;42.048;24.650;2022-08-19T07:26:05;96905.22;;;28.21;48.22
16461;BME280;8341;42.048;24.650;2022-08-19T07:28:32;96910.56;;;28.38;46.19
16461;BME280;8341;42.048;24.650;2022-08-19T07:30:59;96911.06;;;28.55;46.37
16461;BME280;8341;42.048;24.650;2022-08-19T07:33:28;96916.72;;;28.67;43.79
16461;BME280;8341;42.048;24.650;2022-08-19T07:35:57;96908.16;;;28.86;43.56
16461;BME280;8341;42.048;24.650;2022-08-19T07:38:26;96914.41;;;28.96;41.62
16461;BME280;8341;42.048;24.650;2022-08-19T07:40:53;96911.28;;;29.13;42.54
16461;BME280;8341;42.048;24.650;2022-08-19T07:43:20;96919.53;;;29.33;40.94
16461;BME280;8341;42.048;24.650;2022-08-19T07:45:50;96913.47;;;29.48;41.44
16461;BME280;8341;42.048;24.650;2022-08-19T07:48:17;96911.63;;;29.64;41.08
16461;BME280;8341;42.048;24.650;2022-08-19T07:50:44;96909.47;;;29.86;41.56
16461;BME280;8341;42.048;24.650;2022-08-19T07:53:11;96908.25;;;30.00;41.11
16461;BME280;8341;42.048;24.650;2022-08-19T07:55:39;96909.56;;;30.11;39.48
16461;BME280;8341;42.048;24.650;2022-08-19T07:58:06;96915.06;;;30.20;38.87
16461;BME280;8341;42.048;24.650;2022-08-19T08:00:33;96922.13;;;30.33;39.17
16461;BME280;8341;42.048;24.650;2022-08-19T08:03:00;96920.19;;;30.35;38.00
16461;BME280;8341;42.048;24.650;2022-08-19T08:05:27;96917.63;;;30.40;38.30
16461;BME280;8341;42.048;24.650;2022-08-19T08:08:12;96920.19;;;30.35;36.90
16461;BME280;8341;42.048;24.650;2022-08-19T08:11:03;96916.47;;;30.56;37.94
16461;BME280;8341;42.048;24.650;2022-08-19T08:13:30;96912.31;;;30.57;36.20
16461;BME280;8341;42.048;24.650;2022-08-19T08:15:58;96911.50;;;30.80;37.82
16461;BME280;8341;42.048;24.650;2022-08-19T08:18:25;96921.22;;;31.02;37.48
16461;BME280;8341;42.048;24.650;2022-08-19T08:20:52;96912.44;;;31.21;37.34
16461;BME280;8341;42.048;24.650;2022-08-19T08:23:19;96915.28;;;31.35;37.19
16461;BME280;8341;42.048;24.650;2022-08-19T08:25:50;96910.97;;;31.45;36.31
16461;BME280;8341;42.048;24.650;2022-08-19T08:28:18;96910.66;;;31.53;36.74
16461;BME280;8341;42.048;24.650;2022-08-19T08:30:46;96905.34;;;31.59;35.78
16461;BME280;8341;42.048;24.650;2022-08-19T08:33:14;96905.66;;;31.65;35.24
16461;BME280;8341;42.048;24.650;2022-08-19T08:35:43;96911.09;;;31.75;34.96
16461;BME280;8341;42.048;24.650;2022-08-19T08:38:11;96910.28;;;31.86;34.28
16461;BME280;8341;42.048;24.650;2022-08-19T08:40:43;96911.84;;;31.89;33.08
16461;BME280;8341;42.048;24.650;2022-08-19T08:43:21;96900.47;;;31.73;33.33
16461;BME280;8341;42.048;24.650;2022-08-19T08:45:53;96905.16;;;31.82;33.00
16461;BME280;8341;42.048;24.650;2022-08-19T08:48:24;96907.03;;;31.78;32.99
16461;BME280;8341;42.048;24.650;2022-08-19T08:50:57;96892.88;;;32.03;34.37
16461;BME280;8341;42.048;24.650;2022-08-19T08:53:25;96896.00;;;32.09;33.14
16461;BME280;8341;42.048;24.650;2022-08-19T08:55:53;96891.59;;;32.33;34.24
16461;BME280;8341;42.048;24.650;2022-08-19T08:58:30;96891.59;;;32.33;32.83
16461;BME280;8341;42.048;24.650;2022-08-19T09:00:59;96890.97;;;32.35;34.44
16461;BME280;8341;42.048;24.650;2022-08-19T09:03:27;96891.66;;;32.49;33.79
16461;BME280;8341;42.048;24.650;2022-08-19T09:06:00;96880.47;;;32.64;33.64
16461;BME280;8341;42.048;24.650;2022-08-19T09:08:45;96882.41;;;32.75;33.30
16461;BME280;8341;42.048;24.650;2022-08-19T09:11:24;96885.31;;;32.77;31.35
16461;BME280;8341;42.048;24.650;2022-08-19T09:14:07;96881.41;;;32.69;31.75
16461;BME280;8341;42.048;24.650;2022-08-19T09:16:35;96870.78;;;32.83;32.13
16461;BME280;8341;42.048;24.650;2022-08-19T09:19:07;96874.91;;;32.96;32.45
16461;BME280;8341;42.048;24.650;2022-08-19T09:21:34;96873.41;;;32.79;30.33
16461;BME280;8341;42.048;24.650;2022-08-19T09:24:02;96877.41;;;32.74;30.24
16461;BME280;8341;42.048;24.650;2022-08-19T09:26:30;96869.41;;;32.84;30.04
16461;BME280;8341;42.048;24.650;2022-08-19T09:28:58;96865.28;;;32.71;29.70
16461;BME280;8341;42.048;24.650;2022-08-19T09:31:29;96867.59;;;32.91;29.77
16461;BME280;8341;42.048;24.650;2022-08-19T09:33:58;96861.75;;;33.16;30.83
16461;BME280;8341;42.048;24.650;2022-08-19T09:36:30;96862.41;;;33.30;29.80
16461;BME280;8341;42.048;24.650;2022-08-19T09:38:58;96854.47;;;33.42;30.06
16461;BME280;8341;42.048;24.650;2022-08-19T09:41:26;96866.31;;;33.54;31.96
16461;BME280;8341;42.048;24.650;2022-08-19T09:43:57;96862.34;;;33.59;30.72
16461;BME280;8341;42.048;24.650;2022-08-19T09:46:26;96860.25;;;33.60;30.96
16461;BME280;8341;42.048;24.650;2022-08-19T09:48:54;96857.16;;;33.69;30.58
16461;BME280;8341;42.048;24.650;2022-08-19T09:51:25;96857.78;;;33.68;30.45
16461;BME280;8341;42.048;24.650;2022-08-19T09:53:54;96855.38;;;33.93;31.05
16461;BME280;8341;42.048;24.650;2022-08-19T09:56:22;96855.66;;;33.99;31.00
16461;BME280;8341;42.048;24.650;2022-08-19T09:58:49;96853.19;;;34.08;30.72
16461;BME280;8341;42.048;24.650;2022-08-19T10:01:18;96859.91;;;34.00;30.13
16461;BME280;8341;42.048;24.650;2022-08-19T10:03:47;96855.22;;;33.89;29.96
16461;BME280;8341;42.048;24.650;2022-08-19T10:06:16;96850.19;;;33.72;28.21
16461;BME280;8341;42.048;24.650;2022-08-19T10:08:43;96852.09;;;33.52;28.99
16461;BME280;8341;42.048;24.650;2022-08-19T10:11:11;96846.75;;;33.74;30.06
16461;BME280;8341;42.048;24.650;2022-08-19T10:13:40;96851.09;;;33.92;29.61
16461;BME280;8341;42.048;24.650;2022-08-19T10:16:08;96841.41;;;33.97;30.85
16461;BME280;8341;42.048;24.650;2022-08-19T10:18:36;96834.75;;;34.07;29.98
16461;BME280;8341;42.048;24.650;2022-08-19T10:21:06;96836.16;;;34.23;29.99
16461;BME280;8341;42.048;24.650;2022-08-19T10:23:37;96826.31;;;34.42;29.80
16461;BME280;8341;42.048;24.650;2022-08-19T10:26:05;96830.00;;;34.29;29.74
16461;BME280;8341;42.048;24.650;2022-08-19T10:28:33;96826.56;;;34.30;29.19
16461;BME280;8341;42.048;24.650;2022-08-19T10:31:06;96826.50;;;34.46;29.14
16461;BME280;8341;42.048;24.650;2022-08-19T10:33:34;96829.41;;;34.48;27.09
16461;BME280;8341;42.048;24.650;2022-08-19T10:36:02;96827.03;;;34.42;26.96
16461;BME280;8341;42.048;24.650;2022-08-19T10:38:29;96823.06;;;34.32;27.59
16461;BME280;8341;42.048;24.650;2022-08-19T10:41:05;96826.00;;;34.51;28.30
16461;BME280;8341;42.048;24.650;2022-08-19T10:43:32;96821.00;;;34.68;29.10
16461;BME280;8341;42.048;24.650;2022-08-19T10:46:02;96823.75;;;34.83;29.64
16461;BME280;8341;42.048;24.650;2022-08-19T10:48:31;96813.63;;;34.96;28.89
16461;BME280;8341;42.048;24.650;2022-08-19T10:50:58;96813.53;;;35.11;26.42
16461;BME280;8341;42.048;24.650;2022-08-19T10:53:42;96813.94;;;35.04;26.71
16461;BME280;8341;42.048;24.650;2022-08-19T10:56:10;96817.59;;;35.06;26.43
16461;BME280;8341;42.048;24.650;2022-08-19T10:58:55;96824.25;;;35.13;25.38
16461;BME280;8341;42.048;24.650;2022-08-19T11:01:23;96826.78;;;35.25;26.25
16461;BME280;8341;42.048;24.650;2022-08-19T11:03:50;96815.41;;;35.05;25.01
16461;BME280;8341;42.048;24.650;2022-08-19T11:06:18;96814.16;;;35.28;24.97
16461;BME280;8341;42.048;24.650;2022-08-19T11:08:45;96814.59;;;35.40;24.97
16461;BME280;8341;42.048;24.650;2022-08-19T11:11:14;96809.69;;;35.60;25.32
16461;BME280;8341;42.048;24.650;2022-08-19T11:13:41;96814.69;;;35.81;25.34
16461;BME280;8341;42.048;24.650;2022-08-19T11:16:13;96808.84;;;35.97;25.25
16461;BME280;8341;42.048;24.650;2022-08-19T11:18:44;96815.47;;;36.03;25.11
16461;BME280;8341;42.048;24.650;2022-08-19T11:21:13;96810.88;;;36.14;24.60
16461;BME280;8341;42.048;24.650;2022-08-19T11:23:42;96806.31;;;36.05;24.32
16461;BME280;8341;42.048;24.650;2022-08-19T11:26:10;96808.22;;;35.78;25.06
16461;BME280;8341;42.048;24.650;2022-08-19T11:28:38;96800.63;;;35.85;24.65
16461;BME280;8341;42.048;24.650;2022-08-19T11:31:10;96803.13;;;35.75;23.92
16461;BME280;8341;42.048;24.650;2022-08-19T11:33:37;96794.75;;;35.79;25.27
16461;BME280;8341;42.048;24.650;2022-08-19T11:36:04;96797.31;;;35.71;24.38
16461;BME280;8341;42.048;24.650;2022-08-19T11:38:31;96796.19;;;35.80;25.45
16461;BME280;8341;42.048;24.650;2022-08-19T11:40:59;96801.75;;;35.76;25.09
16461;BME280;8341;42.048;24.650;2022-08-19T11:43:27;96788.72;;;35.89;26.24
16461;BME280;8341;42.048;24.650;2022-08-19T11:45:55;96787.28;;;35.68;25.92
16461;BME280;8341;42.048;24.650;2022-08-19T11:48:22;96788.56;;;35.85;25.80
16461;BME280;8341;42.048;24.650;2022-08-19T11:50:50;96781.94;;;35.78;26.34
16461;BME280;8341;42.048;24.650;2022-08-19T11:53:17;96775.41;;;35.73;25.42
16461;BME280;8341;42.048;24.650;2022-08-19T11:55:45;96775.13;;;35.65;23.89
16461;BME280;8341;42.048;24.650;2022-08-19T11:58:14;96777.34;;;35.89;24.48
16461;BME280;8341;42.048;24.650;2022-08-19T12:00:41;96761.91;;;35.94;24.80
16461;BME280;8341;42.048;24.650;2022-08-19T12:03:12;96768.38;;;36.16;24.50
16461;BME280;8341;42.048;24.650;2022-08-19T12:05:40;96765.41;;;36.33;24.43
16461;BME280;8341;42.048;24.650;2022-08-19T12:08:07;96765.78;;;36.24;23.08
16461;BME280;8341;42.048;24.650;2022-08-19T12:10:35;96770.66;;;36.21;22.82
16461;BME280;8341;42.048;24.650;2022-08-19T12:13:02;96756.75;;;36.29;23.88
16461;BME280;8341;42.048;24.650;2022-08-19T12:15:29;96754.56;;;36.28;22.68
16461;BME280;8341;42.048;24.650;2022-08-19T12:17:57;96758.31;;;36.34;23.97
16461;BME280;8341;42.048;24.650;2022-08-19T12:20:25;96756.41;;;36.41;23.84
16461;BME280;8341;42.048;24.650;2022-08-19T12:22:52;96761.84;;;36.33;25.28
16461;BME280;8341;42.048;24.650;2022-08-19T12:25:19;96751.00;;;36.06;24.46
16461;BME280;8341;42.048;24.650;2022-08-19T12:27:46;96751.72;;;36.06;25.76
16461;BME280;8341;42.048;24.650;2022-08-19T12:30:14;96744.38;;;35.99;25.20
16461;BME280;8341;42.048;24.650;2022-08-19T12:32:41;96743.81;;;35.83;23.94
16461;BME280;8341;42.048;24.650;2022-08-19T12:35:08;96740.06;;;35.98;23.62
16461;BME280;8341;42.048;24.650;2022-08-19T12:37:39;96740.38;;;36.06;24.51
16461;BME280;8341;42.048;24.650;2022-08-19T12:40:08;96735.34;;;36.26;24.30
16461;BME280;8341;42.048;24.650;2022-08-19T12:42:37;96730.34;;;36.25;24.94
16461;BME280;8341;42.048;24.650;2022-08-19T12:45:08;96737.28;;;36.20;25.85
16461;BME280;8341;42.048;24.650;2022-08-19T12:47:35;96723.75;;;36.18;26.02
16461;BME280;8341;42.048;24.650;2022-08-19T12:50:02;96736.69;;;36.23;25.54
16461;BME280;8341;42.048;24.650;2022-08-19T12:52:29;96734.97;;;36.14;25.10
16461;BME280;8341;42.048;24.650;2022-08-19T12:54:58;96737.03;;;35.92;23.44
16461;BME280;8341;42.048;24.650;2022-08-19T12:57:28;96728.25;;;35.84;24.03
16461;BME280;8341;42.048;24.650;2022-08-19T12:59:58;96725.19;;;35.78;23.98
16461;BME280;8341;42.048;24.650;2022-08-19T13:02:25;96725.72;;;35.72;24.55
16461;BME280;8341;42.048;24.650;2022-08-19T13:04:52;96720.00;;;35.92;25.14
16461;BME280;8341;42.048;24.650;2022-08-19T13:07:19;96718.91;;;36.01;25.25